Time;durP1;ratioP1;P1;durP2;ratioP2;P2;SDS_P1;SDS_P2;PMS_P1;PMS_P2;Temp;Humidity;BMP_temperature;BMP_pressure;BME280_temperature;BME280_humidity;BME280_pressure;Samples;Min_cycle;Max_cycle;Signal;HPM_P1;HPM_P2
2022/02/07 00:02:00;;;;;;;;;;;;;;;4.41;71.96;100747.47;6316766;22;19957;-79
2022/02/07 00:04:30;;;;;;;;;;;;;;;4.31;72.67;100754.19;6311885;22;19960;-77
2022/02/07 00:06:56;;;;;;;;;;;;;;;4.30;73.31;100760.66;6310325;22;19923;-77
2022/02/07 00:09:24;;;;;;;;;;;;;;;4.33;73.50;100768.34;6313230;22;19907;-74
2022/02/07 00:11:55;;;;;;;;;;;;;;;4.35;74.03;100752.72;6288524;22;19949;-75
2022/02/07 00:14:20;;;;;;;;;;;;;;;4.34;74.11;100763.78;6287609;22;19911;-75
2022/02/07 00:16:46;;;;;;;;;;;;;;;4.37;74.06;100780.41;6292743;22;19907;-75
2022/02/07 00:19:17;;;;;;;;;;;;;;;4.41;74.06;100790.78;6293668;22;19951;-76
2022/02/07 00:21:45;;;;;;;;;;;;;;;4.49;73.40;100793.25;6293152;22;20272;-76
2022/02/07 00:24:10;;;;;;;;;;;;;;;4.49;73.83;100793.25;6292175;22;19911;-75
2022/02/07 00:26:44;;;;;;;;;;;;;;;4.51;73.57;100807.41;6321013;22;19918;-76
2022/02/07 00:29:14;;;;;;;;;;;;;;;4.55;73.79;100814.06;6321035;22;19926;-75
2022/02/07 00:31:42;;;;;;;;;;;;;;;4.58;73.68;100829.88;6318272;22;19955;-76
2022/02/07 00:34:08;;;;;;;;;;;;;;;4.54;74.25;100839.47;6315392;22;19907;-76
2022/02/07 00:36:33;;;;;;;;;;;;;;;4.59;74.16;100849.69;6284214;22;19921;-75
2022/02/07 00:39:05;;;;;;;;;;;;;;;4.57;73.58;100839.06;6284094;22;19990;-75
2022/02/07 00:41:43;;;;;;;;;;;;;;;4.62;74.37;100819.44;6309347;22;19907;-75
2022/02/07 00:44:14;;;;;;;;;;;;;;;4.56;74.11;100831.97;6306271;22;20302;-71
2022/02/07 00:46:48;;;;;;;;;;;;;;;4.57;74.29;100843.63;6304208;22;20268;-70
2022/02/07 00:49:14;;;;;;;;;;;;;;;4.60;73.86;100864.88;6303874;22;19918;-69
2022/02/07 00:51:40;;;;;;;;;;;;;;;4.62;73.69;100877.16;6304208;22;19911;-71
2022/02/07 00:54:08;;;;;;;;;;;;;;;4.60;74.27;100881.13;6276893;22;20020;-70
2022/02/07 00:56:34;;;;;;;;;;;;;;;4.61;74.32;100878.19;6303374;22;19930;-71
2022/02/07 00:58:59;;;;;;;;;;;;;;;4.66;73.33;100872.97;6250155;22;20662;-72
2022/02/07 01:01:27;;;;;;;;;;;;;;;4.63;73.81;100865.28;6305168;22;19985;-72
2022/02/07 01:04:01;;;;;;;;;;;;;;;4.61;73.92;100856.53;6304962;22;19921;-70
2022/02/07 01:06:29;;;;;;;;;;;;;;;4.53;74.29;100870.34;6305315;22;20351;-72
2022/02/07 01:09:10;;;;;;;;;;;;;;;4.53;73.89;100875.75;6304420;22;19914;-70
2022/02/07 01:12:04;;;;;;;;;;;;;;;4.48;74.78;100867.44;6304737;22;20032;-71
2022/02/07 01:47:35;;;;;;;;;;;;;;;4.64;73.14;100939.25;6304285;22;19976;-71
2022/02/07 01:52:48;;;;;;;;;;;;;;;4.74;71.98;100968.63;6313809;22;19918;-72
2022/02/07 01:55:34;;;;;;;;;;;;;;;4.81;72.53;100969.41;6304208;22;19907;-72
2022/02/07 01:58:00;;;;;;;;;;;;;;;4.82;72.01;100981.91;6302647;22;20035;-72
2022/02/07 02:00:28;;;;;;;;;;;;;;;4.79;72.13;100985.91;6304863;22;19907;-73
2022/02/07 02:02:56;;;;;;;;;;;;;;;4.75;72.19;100991.97;6279081;22;19919;-72
2022/02/07 02:05:23;;;;;;;;;;;;;;;4.72;72.18;101002.16;6307102;22;19929;-71
2022/02/07 02:07:54;;;;;;;;;;;;;;;4.64;72.20;101018.63;6280910;22;19918;-72
2022/02/07 02:10:19;;;;;;;;;;;;;;;4.58;71.21;101030.31;6307846;22;19933;-72
2022/02/07 02:13:03;;;;;;;;;;;;;;;4.51;72.24;101024.09;6306175;22;19919;-71
2022/02/07 02:37:19;;;;;;;;;;;;;;;4.06;76.19;101080.75;6301552;22;20248;-72
2022/02/07 02:45:31;;;;;;;;;;;;;;;4.02;76.02;101081.16;6303018;22;19935;-70
2022/02/07 02:48:02;;;;;;;;;;;;;;;4.01;75.67;101078.66;6302888;22;19918;-71
2022/02/07 02:50:30;;;;;;;;;;;;;;;4.01;76.50;101079.50;6302924;22;19986;-72
2022/02/07 02:52:59;;;;;;;;;;;;;;;4.08;75.75;101084.09;6301999;22;19986;-71
2022/02/07 02:55:34;;;;;;;;;;;;;;;4.15;75.33;101084.94;6301606;22;19960;-71
2022/02/07 02:58:04;;;;;;;;;;;;;;;4.21;75.76;101094.13;6275652;22;20354;-71
2022/02/07 03:00:31;;;;;;;;;;;;;;;4.22;75.07;101102.03;6302780;22;19989;-70
2022/02/07 03:02:57;;;;;;;;;;;;;;;4.24;75.05;101105.34;6274000;22;19930;-72
2022/02/07 03:05:25;;;;;;;;;;;;;;;4.26;75.30;101111.38;6302539;22;19915;-72
2022/02/07 03:07:52;;;;;;;;;;;;;;;4.30;74.74;101112.63;6303089;22;19907;-71
2022/02/07 03:10:41;;;;;;;;;;;;;;;4.33;75.21;101123.06;6276733;22;20310;-72
2022/02/07 03:13:31;;;;;;;;;;;;;;;4.41;74.01;101132.88;6302774;22;19990;-71
2022/02/07 03:18:40;;;;;;;;;;;;;;;4.35;74.18;101134.53;6302518;22;19918;-71
2022/02/07 03:21:05;;;;;;;;;;;;;;;4.33;73.56;101133.88;6301955;22;19907;-71
2022/02/07 03:23:31;;;;;;;;;;;;;;;4.30;74.01;101136.19;6303957;22;19918;-71
2022/02/07 03:25:56;;;;;;;;;;;;;;;4.26;73.49;101152.00;6278730;22;20348;-71
2022/02/07 03:28:22;;;;;;;;;;;;;;;4.19;74.11;101157.41;6305045;22;19915;-72
2022/02/07 03:30:48;;;;;;;;;;;;;;;4.15;73.82;101155.34;6303575;22;19911;-71
2022/02/07 03:33:16;;;;;;;;;;;;;;;4.11;74.29;101154.06;6274002;22;20347;-70
2022/02/07 03:35:43;;;;;;;;;;;;;;;4.09;73.93;101154.28;6273944;22;19907;-71
2022/02/07 03:38:12;;;;;;;;;;;;;;;4.07;74.56;101159.03;6277594;22;19912;-71
2022/02/07 03:40:40;;;;;;;;;;;;;;;4.11;74.52;101164.91;6299831;22;19921;-70
2022/02/07 03:43:06;;;;;;;;;;;;;;;4.11;74.31;101170.31;6278416;22;20336;-71
2022/02/07 03:45:31;;;;;;;;;;;;;;;4.10;73.99;101174.03;6305561;22;19911;-71
2022/02/07 03:47:57;;;;;;;;;;;;;;;4.09;74.16;101177.78;6276669;22;20216;-69
2022/02/07 03:50:22;;;;;;;;;;;;;;;4.08;73.94;101168.00;6276415;22;19911;-71
2022/02/07 03:52:50;;;;;;;;;;;;;;;4.05;73.87;101176.56;6252573;22;19968;-70
2022/02/07 03:55:15;;;;;;;;;;;;;;;4.09;74.36;101166.97;6306536;22;19926;-70
2022/02/07 03:57:40;;;;;;;;;;;;;;;4.14;74.27;101172.59;6306208;22;19915;-70
2022/02/07 04:00:07;;;;;;;;;;;;;;;4.19;73.78;101172.81;6278619;22;20422;-71
2022/02/07 04:02:37;;;;;;;;;;;;;;;4.18;74.12;101176.56;6254406;22;19975;-70
2022/02/07 04:07:57;;;;;;;;;;;;;;;4.30;73.34;101195.75;6270671;22;20357;-73
2022/02/07 04:10:36;;;;;;;;;;;;;;;4.28;73.42;101198.66;6306496;22;19915;-74
2022/02/07 04:13:04;;;;;;;;;;;;;;;4.25;73.47;101204.50;6256865;22;19911;-73
2022/02/07 04:15:30;;;;;;;;;;;;;;;4.19;73.47;101211.56;6306072;22;19911;-73
2022/02/07 04:18:00;;;;;;;;;;;;;;;4.16;73.04;101200.28;6280259;22;19986;-72
2022/02/07 04:20:26;;;;;;;;;;;;;;;4.09;73.17;101199.44;6278418;22;19907;-72
2022/02/07 04:22:51;;;;;;;;;;;;;;;4.02;72.83;101200.25;6252645;22;19964;-71
2022/02/07 04:25:24;;;;;;;;;;;;;;;3.96;72.84;101197.56;6306882;22;19911;-74
2022/02/07 04:27:50;;;;;;;;;;;;;;;3.86;73.01;101206.03;6254264;22;19910;-73
2022/02/07 04:30:18;;;;;;;;;;;;;;;3.79;73.54;101210.59;6314890;22;19911;-73
2022/02/07 04:32:58;;;;;;;;;;;;;;;;;;;;;
2022/02/07 04:35:24;;;;;;;;;;;;;;;3.73;74.02;101233.03;6321887;22;19910;-72
2022/02/07 04:37:51;;;;;;;;;;;;;;;3.69;73.57;101240.72;6298334;22;20316;-71
2022/02/07 04:40:19;;;;;;;;;;;;;;;3.70;73.97;101244.28;6317481;22;19907;-72
2022/02/07 04:42:45;;;;;;;;;;;;;;;3.69;74.25;101242.59;6277378;22;20238;-73
2022/02/07 04:58:25;;;;;;;;;;;;;;;3.49;74.68;101249.56;6280945;22;19922;-73
2022/02/07 05:01:12;;;;;;;;;;;;;;;3.42;74.83;101245.97;6279821;22;19932;-73
2022/02/07 05:03:49;;;;;;;;;;;;;;;3.34;74.94;101262.34;6278391;22;19915;-73
2022/02/07 05:14:33;;;;;;;;;;;;;;;3.07;75.05;101250.53;6303707;22;19918;-73
2022/02/07 05:16:59;;;;;;;;;;;;;;;3.02;74.87;101242.16;6276898;22;20329;-73
2022/02/07 05:19:24;;;;;;;;;;;;;;;2.94;75.34;101241.25;6303355;22;19941;-73
2022/02/07 05:21:50;;;;;;;;;;;;;;;2.89;75.38;101243.72;6304291;22;19918;-73
2022/02/07 05:24:20;;;;;;;;;;;;;;;2.86;75.64;101245.97;6275509;22;19923;-74
2022/02/07 05:26:48;;;;;;;;;;;;;;;2.83;75.72;101246.38;6304218;22;19997;-72
2022/02/07 05:29:15;;;;;;;;;;;;;;;2.86;75.82;101254.94;6276407;22;19939;-73
2022/02/07 05:31:41;;;;;;;;;;;;;;;2.87;76.05;101256.59;6305600;22;19962;-73
2022/02/07 05:34:07;;;;;;;;;;;;;;;2.85;75.72;101236.19;6303479;22;19918;-73
2022/02/07 05:36:41;;;;;;;;;;;;;;;2.80;76.28;101228.66;6304465;22;19911;-73
2022/02/07 05:39:31;;;;;;;;;;;;;;;;;;;;;
2022/02/07 05:42:07;;;;;;;;;;;;;;;2.81;76.68;101216.84;6240283;23;19915;-71
2022/02/07 05:44:33;;;;;;;;;;;;;;;2.84;77.29;101219.16;6239082;23;20358;-71
2022/02/07 05:47:01;;;;;;;;;;;;;;;2.95;77.86;101229.44;6240349;23;19916;-72
2022/02/07 05:49:28;;;;;;;;;;;;;;;3.07;78.13;101223.50;6240234;23;19990;-72
2022/02/07 05:51:54;;;;;;;;;;;;;;;3.20;78.47;101223.59;6213550;23;19946;-72
2022/02/07 05:54:20;;;;;;;;;;;;;;;3.34;78.95;101229.06;6239119;23;19915;-72
2022/02/07 05:56:45;;;;;;;;;;;;;;;3.42;78.64;101237.88;6237561;23;20042;-72
2022/02/07 05:59:10;;;;;;;;;;;;;;;3.46;78.53;101249.09;6214785;23;19912;-73
2022/02/07 06:01:36;;;;;;;;;;;;;;;3.52;79.01;101258.28;6239633;23;19908;-72
2022/02/07 06:04:04;;;;;;;;;;;;;;;3.59;78.53;101273.56;6265839;22;19945;-73
2022/02/07 06:06:29;;;;;;;;;;;;;;;3.66;78.32;101277.13;6273870;22;19962;-73
2022/02/07 06:08:55;;;;;;;;;;;;;;;3.73;78.48;101287.16;6296057;22;19910;-73
2022/02/07 06:11:22;;;;;;;;;;;;;;;3.76;77.95;101286.75;6295921;22;19895;-72
2022/02/07 06:13:48;;;;;;;;;;;;;;;3.75;78.52;101293.19;6257097;22;19915;-73
2022/02/07 06:16:20;;;;;;;;;;;;;;;3.75;78.04;101306.72;6220452;22;19918;-74
2022/02/07 06:18:49;;;;;;;;;;;;;;;3.80;78.40;101320.50;6275246;22;19953;-73
2022/02/07 06:21:15;;;;;;;;;;;;;;;3.87;77.59;101315.97;6245630;22;19915;-72
2022/02/07 06:23:50;;;;;;;;;;;;;;;3.82;77.88;101330.06;6246658;22;20326;-75
2022/02/07 06:26:18;;;;;;;;;;;;;;;3.81;77.27;101335.66;6246680;22;20596;-73
2022/02/07 06:29:07;;;;;;;;;;;;;;;3.78;77.80;101338.78;6273696;22;20474;-71
2022/02/07 06:31:32;;;;;;;;;;;;;;;3.72;78.25;101342.28;6271509;22;20238;-72
2022/02/07 06:34:00;;;;;;;;;;;;;;;3.73;78.05;101360.19;6273805;22;19911;-71
2022/02/07 06:36:27;;;;;;;;;;;;;;;3.70;78.57;101374.94;6271351;22;19950;-71
2022/02/07 06:38:53;;;;;;;;;;;;;;;3.70;78.83;101371.41;6271973;22;19954;-72
2022/02/07 06:41:18;;;;;;;;;;;;;;;3.67;79.18;101381.59;6246198;22;19915;-71
2022/02/07 06:43:44;;;;;;;;;;;;;;;3.71;79.05;101367.66;6272361;22;19911;-74
2022/02/07 06:46:11;;;;;;;;;;;;;;;3.65;79.09;101380.09;6270239;22;19919;-74
2022/02/07 06:48:45;;;;;;;;;;;;;;;3.72;78.84;101377.44;6270540;22;19915;-72
2022/02/07 06:51:11;;;;;;;;;;;;;;;3.71;78.09;101386.59;6245398;22;19915;-74
2022/02/07 06:53:36;;;;;;;;;;;;;;;3.62;78.87;101384.06;6273492;22;19914;-71
2022/02/07 06:56:02;;;;;;;;;;;;;;;3.55;79.09;101371.50;6244803;22;19907;-72
2022/02/07 06:58:35;;;;;;;;;;;;;;;3.54;79.75;101372.53;6270922;22;19911;-73
2022/02/07 07:01:01;;;;;;;;;;;;;;;3.48;79.93;101372.28;6243692;22;20001;-72
2022/02/07 07:03:26;;;;;;;;;;;;;;;3.51;79.49;101371.06;6264269;22;19977;-73
2022/02/07 07:05:53;;;;;;;;;;;;;;;3.47;79.99;101383.28;6303736;22;19918;-73
2022/02/07 07:08:19;;;;;;;;;;;;;;;3.47;79.90;101402.22;6274581;22;19997;-72
2022/02/07 07:10:46;;;;;;;;;;;;;;;3.45;80.13;101410.53;6277752;22;20313;-73
2022/02/07 07:13:26;;;;;;;;;;;;;;;3.43;80.14;101414.47;6303842;22;20231;-72
2022/02/07 07:16:13;;;;;;;;;;;;;;;3.46;80.39;101422.19;6276333;22;19907;-75
2022/02/07 07:18:38;;;;;;;;;;;;;;;3.44;80.14;101424.25;6303777;22;20245;-75
2022/02/07 07:21:04;;;;;;;;;;;;;;;3.43;80.35;101422.56;6306743;22;19911;-74
2022/02/07 07:23:31;;;;;;;;;;;;;;;3.42;79.91;101426.31;6253512;22;19915;-72
2022/02/07 07:25:56;;;;;;;;;;;;;;;3.39;80.28;101426.69;6306449;22;20355;-74
2022/02/07 07:28:23;;;;;;;;;;;;;;;3.37;80.32;101436.88;6307868;22;19911;-74
2022/02/07 07:30:57;;;;;;;;;;;;;;;3.40;80.78;101434.63;6312178;22;19918;-72
2022/02/07 07:33:25;;;;;;;;;;;;;;;3.40;81.16;101445.44;6309330;22;19911;-71
2022/02/07 07:35:54;;;;;;;;;;;;;;;3.39;80.77;101448.31;6280891;22;20314;-73
2022/02/07 07:38:19;;;;;;;;;;;;;;;3.37;80.91;101453.09;6283459;22;19920;-75
2022/02/07 07:40:44;;;;;;;;;;;;;;;3.36;81.57;101467.63;6304575;22;19911;-72
2022/02/07 07:43:17;;;;;;;;;;;;;;;3.38;81.39;101473.69;6307534;22;19997;-72
2022/02/07 07:45:48;;;;;;;;;;;;;;;3.38;81.49;101471.00;6309150;22;19914;-73
2022/02/07 07:48:19;;;;;;;;;;;;;;;3.37;81.99;101472.03;6306672;22;19943;-73
2022/02/07 07:50:58;;;;;;;;;;;;;;;3.44;81.90;101483.75;6306102;22;19956;-73
2022/02/07 08:01:56;;;;;;;;;;;;;;;3.57;81.04;101513.63;6303914;22;20375;-71
2022/02/07 08:04:27;;;;;;;;;;;;;;;3.62;80.81;101521.16;6267383;22;19984;-71
2022/02/07 08:12:01;;;;;;;;;;;;;;;3.70;80.76;101515.63;6282633;22;19915;-73
2022/02/07 08:14:28;;;;;;;;;;;;;;;3.74;81.43;101521.47;6274301;22;20210;-75
2022/02/07 08:17:11;;;;;;;;;;;;;;;3.82;81.11;101521.34;6266991;22;20388;-74
2022/02/07 08:19:53;;;;;;;;;;;;;;;;;;;;;
2022/02/07 08:22:19;;;;;;;;;;;;;;;4.00;80.68;101527.13;6273632;22;19998;-75
2022/02/07 08:24:57;;;;;;;;;;;;;;;;;;;;;
2022/02/07 08:27:27;;;;;;;;;;;;;;;4.16;80.09;101536.00;6274290;22;19997;-73
2022/02/07 08:29:55;;;;;;;;;;;;;;;4.19;80.74;101536.47;6276001;22;20202;-74
2022/02/07 08:32:21;;;;;;;;;;;;;;;4.24;79.88;101538.56;6246640;22;19914;-73
2022/02/07 08:35:00;;;;;;;;;;;;;;;4.24;79.51;101538.56;6274360;22;19911;-73
2022/02/07 08:37:31;;;;;;;;;;;;;;;4.26;79.72;101535.66;6246456;22;19929;-76
2022/02/07 08:40:40;;;;;;;;;;;;;;;;;;;;;
2022/02/07 08:43:06;;;;;;;;;;;;;;;4.33;80.01;101537.38;6275123;22;19914;-73
2022/02/07 08:45:47;;;;;;;;;;;;;;;;;;;;;
2022/02/07 08:48:12;;;;;;;;;;;;;;;4.41;80.37;101528.28;6281939;22;19953;-74
2022/02/07 08:50:38;;;;;;;;;;;;;;;4.51;79.69;101544.16;6275438;22;19915;-76
2022/02/07 08:53:05;;;;;;;;;;;;;;;4.67;80.95;101543.00;6277808;22;19911;-78
2022/02/07 08:55:36;;;;;;;;;;;;;;;5.14;80.74;101546.81;6248172;22;19908;-74
2022/02/07 08:58:10;;;;;;;;;;;;;;;5.85;80.13;101561.81;6249662;22;19907;-75
2022/02/07 09:00:43;;;;;;;;;;;;;;;6.56;77.20;101560.38;6270531;22;19908;-75
2022/02/07 09:05:50;;;;;;;;;;;;;;;7.80;72.94;101589.44;6315082;22;19914;-73
2022/02/07 09:11:30;;;;;;;;;;;;;;;8.59;67.73;101580.88;6313590;22;19932;-74
2022/02/07 09:14:10;;;;;;;;;;;;;;;8.91;66.97;101589.78;6276823;22;19922;-76
2022/02/07 09:16:44;;;;;;;;;;;;;;;9.29;65.83;101587.84;6305582;22;19922;-75
2022/02/07 09:19:10;;;;;;;;;;;;;;;9.70;64.77;101583.56;6306323;22;19995;-76
2022/02/07 09:21:40;;;;;;;;;;;;;;;10.11;63.59;101584.63;6307763;22;20431;-75
2022/02/07 09:24:06;;;;;;;;;;;;;;;10.49;61.52;101605.25;6277566;22;19918;-74
2022/02/07 09:26:31;;;;;;;;;;;;;;;10.81;61.07;101618.59;6278540;22;19957;-73
2022/02/07 09:28:56;;;;;;;;;;;;;;;11.04;59.09;101622.38;6304508;22;19907;-74
2022/02/07 09:31:22;;;;;;;;;;;;;;;11.24;57.66;101628.28;6304651;22;20337;-76
2022/02/07 09:33:48;;;;;;;;;;;;;;;11.46;57.30;101633.13;6306091;22;20233;-74
2022/02/07 09:36:14;;;;;;;;;;;;;;;11.66;56.01;101635.47;6276634;22;19918;-74
2022/02/07 09:38:43;;;;;;;;;;;;;;;11.90;56.02;101628.00;6307209;22;19989;-74
2022/02/07 09:41:08;;;;;;;;;;;;;;;12.23;54.81;101626.41;6278193;22;19907;-74
2022/02/07 09:43:43;;;;;;;;;;;;;;;12.44;53.65;101629.47;6277174;22;20219;-73
2022/02/07 09:46:18;;;;;;;;;;;;;;;12.60;53.46;101612.19;6304745;22;19915;-72
2022/02/07 09:48:51;;;;;;;;;;;;;;;12.88;52.58;101618.66;6303576;22;19935;-73
2022/02/07 09:51:17;;;;;;;;;;;;;;;13.14;52.34;101638.22;6304032;22;19931;-72
2022/02/07 09:53:42;;;;;;;;;;;;;;;13.39;51.70;101624.84;6276959;22;19914;-73
2022/02/07 09:56:09;;;;;;;;;;;;;;;13.74;51.12;101622.75;6304751;22;19995;-73
2022/02/07 09:58:38;;;;;;;;;;;;;;;14.27;50.08;101623.03;6305667;22;19907;-73
2022/02/07 10:01:10;;;;;;;;;;;;;;;14.96;50.00;101624.13;6309883;22;20306;-74
2022/02/07 10:03:53;;;;;;;;;;;;;;;15.59;48.91;101621.38;6308527;22;19930;-74
2022/02/07 10:09:19;;;;;;;;;;;;;;;16.70;47.32;101620.13;6318685;22;19994;-74
2022/02/07 10:19:57;;;;;;;;;;;;;;;17.88;45.63;101641.84;6320750;22;19907;-73
2022/02/07 10:22:53;;;;;;;;;;;;;;;17.83;43.82;101639.13;6309604;22;19907;-71
2022/02/07 10:37:43;;;;;;;;;;;;;;;14.93;46.82;101642.00;6304826;22;19990;-72
2022/02/07 10:39:56;;;;;;;;;;;;;;;14.93;47.25;101649.44;6306852;22;19911;-72
2022/02/07 10:44:58;;;;;;;;;;;;;;;14.28;46.83;101641.19;6317958;22;19910;-74
2022/02/07 10:47:28;;;;;;;;;;;;;;;14.16;47.68;101635.03;6307686;22;20458;-72
2022/02/07 10:50:01;;;;;;;;;;;;;;;14.13;48.06;101637.22;6276686;22;19917;-71
2022/02/07 10:52:27;;;;;;;;;;;;;;;14.06;48.24;101630.25;6278291;22;19907;-72
2022/02/07 10:54:56;;;;;;;;;;;;;;;14.10;48.00;101643.22;6307535;22;19914;-73
2022/02/07 10:57:27;;;;;;;;;;;;;;;14.04;47.95;101649.75;6253778;22;20266;-72
2022/02/07 10:59:52;;;;;;;;;;;;;;;13.98;48.40;101642.56;6307736;22;20238;-72
2022/02/07 11:05:10;;;;;;;;;;;;;;;14.14;48.40;101640.78;6277233;22;19941;-71
2022/02/07 11:07:35;;;;;;;;;;;;;;;14.11;47.78;101641.31;6250598;22;19930;-72
2022/02/07 11:20:21;;;;;;;;;;;;;;;14.21;47.22;101651.59;6296372;22;19911;-71
2022/02/07 11:23:03;;;;;;;;;;;;;;;14.26;46.85;101652.44;6271507;22;19911;-71
2022/02/07 11:25:50;;;;;;;;;;;;;;;14.31;47.12;101657.19;6267384;22;19965;-73
2022/02/07 11:28:22;;;;;;;;;;;;;;;14.43;46.70;101659.78;6280378;22;19995;-72
2022/02/07 11:30:56;;;;;;;;;;;;;;;14.45;45.26;101657.56;6251841;22;19907;-71
2022/02/07 11:33:29;;;;;;;;;;;;;;;14.28;44.34;101663.19;6279358;22;20100;-73
2022/02/07 11:35:57;;;;;;;;;;;;;;;14.12;44.60;101665.81;6276318;22;19911;-73
2022/02/07 11:38:22;;;;;;;;;;;;;;;13.98;44.90;101669.25;6280359;22;19907;-74
2022/02/07 11:40:59;;;;;;;;;;;;;;;14.05;46.02;101669.88;6279934;22;20330;-74
2022/02/07 11:43:24;;;;;;;;;;;;;;;14.18;46.15;101674.09;6252169;22;20239;-74
2022/02/07 11:46:05;;;;;;;;;;;;;;;14.18;46.39;101663.09;6279918;22;19987;-73
2022/02/07 11:48:33;;;;;;;;;;;;;;;14.13;46.15;101652.88;6279105;22;19915;-73
2022/02/07 11:51:01;;;;;;;;;;;;;;;13.94;46.54;101657.91;6279332;22;19911;-72
2022/02/07 11:53:35;;;;;;;;;;;;;;;13.76;47.52;101659.09;6252115;22;20306;-73
2022/02/07 11:56:23;;;;;;;;;;;;;;;13.59;47.91;101651.75;6251029;22;19907;-72
2022/02/07 11:59:28;;;;;;;;;;;;;;;13.58;48.59;101652.84;6252066;22;20344;-73
2022/02/07 12:01:58;;;;;;;;;;;;;;;13.60;48.86;101641.59;6276800;22;20359;-73
2022/02/07 12:04:24;;;;;;;;;;;;;;;13.43;48.66;101642.50;6303828;22;19919;-74
2022/02/07 12:07:04;;;;;;;;;;;;;;;13.25;49.23;101645.50;6279632;22;19951;-71
2022/02/07 12:09:30;;;;;;;;;;;;;;;13.15;49.54;101637.97;6309252;22;19911;-75
2022/02/07 12:11:55;;;;;;;;;;;;;;;13.12;50.29;101640.41;6309720;22;19918;-73
2022/02/07 12:14:27;;;;;;;;;;;;;;;12.96;50.32;101631.94;6281149;22;20349;-72
2022/02/07 12:16:53;;;;;;;;;;;;;;;13.00;51.11;101638.59;6282635;22;19907;-74
2022/02/07 12:19:18;;;;;;;;;;;;;;;13.01;50.83;101636.66;6309158;22;19910;-74
2022/02/07 12:21:52;;;;;;;;;;;;;;;12.96;51.58;101653.91;6294556;22;19937;-74
2022/02/07 12:24:17;;;;;;;;;;;;;;;12.85;51.37;101641.09;6326686;22;19974;-70
2022/02/07 12:26:45;;;;;;;;;;;;;;;12.60;51.47;101639.66;6300334;22;19919;-72
2022/02/07 12:29:49;;;;;;;;;;;;;;;12.36;52.94;101634.28;6300317;22;19988;-71
2022/02/07 12:31:59;;;;;;;;;;;;;;;12.28;53.63;101637.47;6325723;22;19911;-70
2022/02/07 12:34:29;;;;;;;;;;;;;;;12.30;53.71;101640.78;6316458;22;20237;-71
2022/02/07 12:36:55;;;;;;;;;;;;;;;12.29;53.79;101643.78;6285226;22;19907;-72
2022/02/07 12:39:21;;;;;;;;;;;;;;;12.23;54.32;101634.63;6290216;22;19915;-68
2022/02/07 12:41:57;;;;;;;;;;;;;;;12.08;54.80;101637.09;6324144;22;19915;-73
2022/02/07 12:44:23;;;;;;;;;;;;;;;11.86;55.45;101641.34;6315976;22;19908;-71
2022/02/07 12:46:50;;;;;;;;;;;;;;;11.75;56.08;101650.44;6312234;22;19922;-71
2022/02/07 12:49:22;;;;;;;;;;;;;;;11.66;56.77;101635.47;6313114;22;19911;-73
2022/02/07 12:51:47;;;;;;;;;;;;;;;11.64;56.50;101643.09;6307094;22;19911;-70
2022/02/07 12:54:13;;;;;;;;;;;;;;;11.64;56.97;101629.41;6308590;22;19911;-71
2022/02/07 12:56:39;;;;;;;;;;;;;;;11.63;57.19;101642.25;6281907;22;19914;-71
2022/02/07 12:59:04;;;;;;;;;;;;;;;11.81;58.02;101637.66;6282929;22;19911;-70
2022/02/07 13:01:31;;;;;;;;;;;;;;;12.17;57.72;101638.34;6254225;22;20275;-71
2022/02/07 13:04:03;;;;;;;;;;;;;;;12.59;56.76;101632.47;6307850;22;19919;-70
2022/02/07 13:06:32;;;;;;;;;;;;;;;12.99;56.16;101625.94;6279249;22;20084;-71
2022/02/07 13:09:00;;;;;;;;;;;;;;;13.31;55.64;101622.50;6277822;22;19915;-70
2022/02/07 13:11:30;;;;;;;;;;;;;;;13.56;54.31;101630.25;6279692;22;19976;-70
2022/02/07 13:13:55;;;;;;;;;;;;;;;13.63;53.56;101623.75;6279815;22;19941;-71
2022/02/07 13:16:21;;;;;;;;;;;;;;;13.66;52.75;101628.75;6310676;22;19911;-71
2022/02/07 13:18:46;;;;;;;;;;;;;;;13.54;53.22;101621.47;6281062;22;19945;-70
2022/02/07 13:21:17;;;;;;;;;;;;;;;13.34;53.19;101622.03;6308236;22;19914;-69
2022/02/07 13:23:43;;;;;;;;;;;;;;;13.10;52.77;101610.44;6309231;22;19913;-69
2022/02/07 13:26:11;;;;;;;;;;;;;;;12.85;53.20;101613.63;6306940;22;19997;-70
2022/02/07 13:28:48;;;;;;;;;;;;;;;12.66;53.89;101613.09;6313139;22;19935;-77
2022/02/07 13:31:14;;;;;;;;;;;;;;;12.52;54.37;101602.47;6288544;22;20008;-75
2022/02/07 13:33:46;;;;;;;;;;;;;;;12.45;54.32;101603.72;6300031;22;20424;-76
2022/02/07 13:36:19;;;;;;;;;;;;;;;12.30;54.82;101607.88;6299484;22;19907;-78
2022/02/07 13:38:47;;;;;;;;;;;;;;;12.17;55.24;101602.72;6290184;22;19915;-72
2022/02/07 18:33:18;;;;;;;;;;;;;;;11.44;79.07;101512.03;6312170;22;19945;-72
2022/02/07 18:35:49;;;;;;;;;;;;;;;11.41;79.29;101504.31;6337831;22;20321;-73
2022/02/07 18:38:17;;;;;;;;;;;;;;;11.39;79.37;101509.19;6335815;22;19907;-73
2022/02/07 18:40:48;;;;;;;;;;;;;;;11.41;79.64;101512.53;6336961;22;19942;-74
2022/02/07 18:43:14;;;;;;;;;;;;;;;11.40;79.07;101511.69;6311067;22;19915;-73
2022/02/07 18:45:41;;;;;;;;;;;;;;;11.39;79.25;101509.19;6336200;22;20317;-73
2022/02/07 18:48:09;;;;;;;;;;;;;;;11.44;79.43;101506.56;6309656;22;20335;-72
2022/02/07 18:50:35;;;;;;;;;;;;;;;11.43;79.22;101521.31;6309547;22;20224;-72
2022/02/07 18:53:01;;;;;;;;;;;;;;;11.47;79.56;101515.09;6336737;22;19910;-73
2022/02/07 18:55:26;;;;;;;;;;;;;;;11.50;78.79;101517.34;6335676;22;19914;-73
2022/02/07 18:58:00;;;;;;;;;;;;;;;11.50;78.83;101522.00;6337305;22;19907;-74
2022/02/07 19:00:27;;;;;;;;;;;;;;;11.55;79.32;101515.78;6337998;22;19906;-73
2022/02/07 19:03:11;;;;;;;;;;;;;;;11.56;78.52;101525.69;6326871;22;19985;-72
2022/02/07 19:08:22;;;;;;;;;;;;;;;11.61;78.51;101523.00;6289598;22;19934;-73
2022/02/07 19:10:48;;;;;;;;;;;;;;;11.61;78.26;101515.66;6310681;22;19914;-74
2022/02/07 19:13:13;;;;;;;;;;;;;;;11.66;78.06;101518.47;6309931;22;19915;-73
2022/02/07 19:15:39;;;;;;;;;;;;;;;11.67;77.91;101509.19;6336174;22;19914;-74
2022/02/07 19:18:05;;;;;;;;;;;;;;;11.72;78.22;101518.56;6308176;22;19915;-73
2022/02/07 19:20:34;;;;;;;;;;;;;;;11.75;77.71;101518.88;6305625;22;19938;-73
2022/02/07 19:22:59;;;;;;;;;;;;;;;11.79;77.89;101524.72;6306425;22;19906;-74
2022/02/07 19:25:34;;;;;;;;;;;;;;;11.77;77.15;101522.22;6337204;22;19910;-75
2022/02/07 19:28:03;;;;;;;;;;;;;;;11.77;77.69;101532.34;6314966;22;19993;-75
2022/02/07 19:30:33;;;;;;;;;;;;;;;11.74;76.90;101527.34;6291292;22;19911;-72
2022/02/07 19:33:08;;;;;;;;;;;;;;;11.67;77.70;101517.41;6316985;22;19925;-74
2022/02/07 19:36:02;;;;;;;;;;;;;;;11.63;77.20;101520.88;6317702;22;19961;-75
2022/02/07 19:45:00;;;;;;;;;;;;;;;11.47;77.73;101533.47;6212848;23;19993;-74
2022/02/07 19:47:25;;;;;;;;;;;;;;;11.44;77.27;101533.94;6212512;23;20035;-74
2022/02/07 19:50:03;;;;;;;;;;;;;;;11.48;77.05;101535.13;6210915;23;19947;-73
2022/02/07 20:17:44;;;;;;;;;;;;;;;11.17;76.72;101540.00;6320946;22;20325;-74
2022/02/07 20:20:25;;;;;;;;;;;;;;;;;;;;;
2022/02/07 20:22:54;;;;;;;;;;;;;;;11.17;76.67;101545.47;6339480;22;19989;-76
2022/02/07 20:25:27;;;;;;;;;;;;;;;11.11;76.60;101554.66;6312130;22;19917;-76
2022/02/07 20:28:00;;;;;;;;;;;;;;;11.14;76.77;101556.91;6341543;22;19998;-75
2022/02/07 20:30:31;;;;;;;;;;;;;;;11.11;76.60;101563.72;6339967;22;20006;-79
2022/02/07 20:33:18;;;;;;;;;;;;;;;11.15;76.56;101566.78;6341653;22;19991;-76
2022/02/07 20:35:46;;;;;;;;;;;;;;;11.19;76.64;101576.19;6339604;22;19934;-78
2022/02/07 20:38:12;;;;;;;;;;;;;;;11.25;76.20;101568.91;6313117;22;19989;-77
2022/02/07 20:44:12;;;;;;;;;;;;;;;11.23;75.98;101585.56;6350704;22;19960;-78
2022/02/07 23:08:33;;;;;;;;;;;;;;;10.67;76.53;101603.50;6214571;23;19961;-75
2022/02/07 23:33:38;;;;;;;;;;;;;;;10.90;74.36;101599.91;6337886;22;19914;-73
2022/02/07 23:35:48;;;;;;;;;;;;;;;10.94;74.28;101607.41;6338400;22;20248;-74
2022/02/07 23:38:25;;;;;;;;;;;;;;;10.95;74.21;101609.06;6338343;22;19910;-74
2022/02/07 23:41:16;;;;;;;;;;;;;;;10.98;74.41;101613.22;6336298;22;20318;-72
2022/02/07 23:43:39;;;;;;;;;;;;;;;10.99;74.30;101610.28;6335670;22;20298;-73
2022/02/07 23:46:13;;;;;;;;;;;;;;;10.99;74.11;101620.38;6311663;22;19915;-71
2022/02/07 23:49:01;;;;;;;;;;;;;;;11.00;73.52;101617.38;6338813;22;20202;-71
